sensor_id;sensor_type;location;lat;lon;timestamp;P1;durP1;ratioP1;P2;durP2;ratioP2
38113;SDS011;23926;53.222;6.354;2023-04-03T00:00:40;3.22;;;2.10;;
38113;SDS011;23926;53.222;6.354;2023-04-03T00:03:06;6.53;;;2.40;;
38113;SDS011;23926;53.222;6.354;2023-04-03T00:05:31;3.67;;;2.33;;
38113;SDS011;23926;53.222;6.354;2023-04-03T00:07:57;4.50;;;1.88;;
38113;SDS011;23926;53.222;6.354;2023-04-03T00:10:23;7.00;;;2.33;;
38113;SDS011;23926;53.222;6.354;2023-04-03T00:12:49;3.95;;;2.03;;
38113;SDS011;23926;53.222;6.354;2023-04-03T00:15:14;4.63;;;2.22;;
38113;SDS011;23926;53.222;6.354;2023-04-03T00:17:40;3.95;;;2.25;;
38113;SDS011;23926;53.222;6.354;2023-04-03T00:20:05;6.38;;;2.30;;
38113;SDS011;23926;53.222;6.354;2023-04-03T00:22:31;7.32;;;2.53;;
38113;SDS011;23926;53.222;6.354;2023-04-03T00:24:57;3.75;;;2.10;;
38113;SDS011;23926;53.222;6.354;2023-04-03T00:27:22;6.75;;;2.03;;
38113;SDS011;23926;53.222;6.354;2023-04-03T00:29:47;4.95;;;2.28;;
38113;SDS011;23926;53.222;6.354;2023-04-03T00:32:13;3.55;;;2.00;;
38113;SDS011;23926;53.222;6.354;2023-04-03T00:34:38;4.25;;;2.63;;
38113;SDS011;23926;53.222;6.354;2023-04-03T00:37:04;6.45;;;1.98;;
38113;SDS011;23926;53.222;6.354;2023-04-03T00:39:29;3.17;;;1.90;;
38113;SDS011;23926;53.222;6.354;2023-04-03T00:41:55;4.82;;;2.28;;
38113;SDS011;23926;53.222;6.354;2023-04-03T00:46:58;4.57;;;1.65;;
38113;SDS011;23926;53.222;6.354;2023-04-03T00:49:24;3.03;;;1.73;;
38113;SDS011;23926;53.222;6.354;2023-04-03T00:51:50;5.18;;;2.15;;
38113;SDS011;23926;53.222;6.354;2023-04-03T00:54:16;5.20;;;2.00;;
38113;SDS011;23926;53.222;6.354;2023-04-03T00:56:41;2.90;;;1.70;;
38113;SDS011;23926;53.222;6.354;2023-04-03T00:59:10;4.10;;;1.70;;
38113;SDS011;23926;53.222;6.354;2023-04-03T01:01:38;2.08;;;1.35;;
38113;SDS011;23926;53.222;6.354;2023-04-03T01:04:04;4.30;;;2.10;;
38113;SDS011;23926;53.222;6.354;2023-04-03T01:06:35;3.80;;;2.03;;
38113;SDS011;23926;53.222;6.354;2023-04-03T01:09:03;3.97;;;1.67;;
38113;SDS011;23926;53.222;6.354;2023-04-03T01:11:29;3.92;;;1.92;;
38113;SDS011;23926;53.222;6.354;2023-04-03T01:13:54;4.45;;;1.85;;
38113;SDS011;23926;53.222;6.354;2023-04-03T01:16:20;2.28;;;1.70;;
38113;SDS011;23926;53.222;6.354;2023-04-03T01:18:45;3.70;;;1.90;;
38113;SDS011;23926;53.222;6.354;2023-04-03T01:26:42;4.45;;;1.60;;
38113;SDS011;23926;53.222;6.354;2023-04-03T01:29:08;2.50;;;1.55;;
38113;SDS011;23926;53.222;6.354;2023-04-03T01:31:45;2.97;;;1.70;;
38113;SDS011;23926;53.222;6.354;2023-04-03T01:34:10;5.10;;;1.70;;
38113;SDS011;23926;53.222;6.354;2023-04-03T01:36:35;2.95;;;1.40;;
38113;SDS011;23926;53.222;6.354;2023-04-03T01:39:01;4.18;;;1.98;;
38113;SDS011;23926;53.222;6.354;2023-04-03T01:41:26;5.50;;;2.25;;
38113;SDS011;23926;53.222;6.354;2023-04-03T01:43:52;2.92;;;1.60;;
38113;SDS011;23926;53.222;6.354;2023-04-03T01:46:18;5.35;;;2.10;;
38113;SDS011;23926;53.222;6.354;2023-04-03T01:48:44;5.45;;;1.73;;
38113;SDS011;23926;53.222;6.354;2023-04-03T01:51:10;3.58;;;2.15;;
38113;SDS011;23926;53.222;6.354;2023-04-03T01:53:36;3.15;;;1.38;;
38113;SDS011;23926;53.222;6.354;2023-04-03T01:56:01;4.45;;;2.05;;
38113;SDS011;23926;53.222;6.354;2023-04-03T01:58:26;3.35;;;1.90;;
38113;SDS011;23926;53.222;6.354;2023-04-03T02:00:52;4.90;;;2.33;;
38113;SDS011;23926;53.222;6.354;2023-04-03T02:03:17;8.20;;;2.28;;
38113;SDS011;23926;53.222;6.354;2023-04-03T02:05:43;6.32;;;2.25;;
38113;SDS011;23926;53.222;6.354;2023-04-03T02:08:09;4.72;;;2.08;;
38113;SDS011;23926;53.222;6.354;2023-04-03T02:10:35;2.95;;;1.98;;
38113;SDS011;23926;53.222;6.354;2023-04-03T02:13:00;3.80;;;2.15;;
38113;SDS011;23926;53.222;6.354;2023-04-03T02:15:26;5.95;;;2.05;;
38113;SDS011;23926;53.222;6.354;2023-04-03T02:17:51;7.13;;;1.90;;
38113;SDS011;23926;53.222;6.354;2023-04-03T02:20:17;3.22;;;2.03;;
38113;SDS011;23926;53.222;6.354;2023-04-03T02:22:43;6.75;;;2.15;;
38113;SDS011;23926;53.222;6.354;2023-04-03T02:25:08;5.35;;;2.08;;
38113;SDS011;23926;53.222;6.354;2023-04-03T02:27:35;6.00;;;2.20;;
38113;SDS011;23926;53.222;6.354;2023-04-03T02:30:01;13.15;;;2.17;;
38113;SDS011;23926;53.222;6.354;2023-04-03T02:32:26;5.97;;;2.28;;
38113;SDS011;23926;53.222;6.354;2023-04-03T02:34:52;4.72;;;1.73;;
38113;SDS011;23926;53.222;6.354;2023-04-03T02:37:17;9.32;;;2.47;;
38113;SDS011;23926;53.222;6.354;2023-04-03T02:39:42;6.40;;;2.17;;
38113;SDS011;23926;53.222;6.354;2023-04-03T02:42:08;11.45;;;2.28;;
38113;SDS011;23926;53.222;6.354;2023-04-03T02:44:33;7.53;;;2.65;;
38113;SDS011;23926;53.222;6.354;2023-04-03T02:46:59;4.65;;;2.47;;
38113;SDS011;23926;53.222;6.354;2023-04-03T02:49:24;6.20;;;2.22;;
38113;SDS011;23926;53.222;6.354;2023-04-03T02:51:50;3.83;;;1.92;;
38113;SDS011;23926;53.222;6.354;2023-04-03T02:54:16;6.10;;;2.10;;
38113;SDS011;23926;53.222;6.354;2023-04-03T02:56:41;6.88;;;2.30;;
38113;SDS011;23926;53.222;6.354;2023-04-03T02:59:07;8.05;;;2.30;;
38113;SDS011;23926;53.222;6.354;2023-04-03T03:01:32;5.65;;;2.53;;
38113;SDS011;23926;53.222;6.354;2023-04-03T03:03:58;8.50;;;2.53;;
38113;SDS011;23926;53.222;6.354;2023-04-03T03:06:25;7.85;;;2.30;;
38113;SDS011;23926;53.222;6.354;2023-04-03T03:08:50;6.72;;;2.55;;
38113;SDS011;23926;53.222;6.354;2023-04-03T03:11:16;7.90;;;2.42;;
38113;SDS011;23926;53.222;6.354;2023-04-03T03:13:41;9.07;;;2.63;;
38113;SDS011;23926;53.222;6.354;2023-04-03T03:16:06;4.32;;;2.28;;
38113;SDS011;23926;53.222;6.354;2023-04-03T03:18:32;5.95;;;2.78;;
38113;SDS011;23926;53.222;6.354;2023-04-03T03:20:59;8.45;;;2.40;;
38113;SDS011;23926;53.222;6.354;2023-04-03T03:23:26;7.63;;;2.22;;
38113;SDS011;23926;53.222;6.354;2023-04-03T03:26:11;4.85;;;2.10;;
38113;SDS011;23926;53.222;6.354;2023-04-03T03:28:36;5.95;;;2.03;;
38113;SDS011;23926;53.222;6.354;2023-04-03T03:31:03;4.97;;;2.20;;
38113;SDS011;23926;53.222;6.354;2023-04-03T03:33:29;8.05;;;2.72;;
38113;SDS011;23926;53.222;6.354;2023-04-03T03:35:54;6.82;;;3.15;;
38113;SDS011;23926;53.222;6.354;2023-04-03T03:38:21;7.60;;;1.95;;
38113;SDS011;23926;53.222;6.354;2023-04-03T03:40:47;5.50;;;2.55;;
38113;SDS011;23926;53.222;6.354;2023-04-03T03:43:13;4.72;;;2.42;;
38113;SDS011;23926;53.222;6.354;2023-04-03T03:45:40;8.45;;;2.55;;
38113;SDS011;23926;53.222;6.354;2023-04-03T03:48:06;7.57;;;2.50;;
38113;SDS011;23926;53.222;6.354;2023-04-03T03:50:31;9.68;;;2.90;;
38113;SDS011;23926;53.222;6.354;2023-04-03T03:52:57;9.52;;;2.67;;
38113;SDS011;23926;53.222;6.354;2023-04-03T03:55:23;6.93;;;2.95;;
38113;SDS011;23926;53.222;6.354;2023-04-03T03:57:48;9.00;;;2.45;;
38113;SDS011;23926;53.222;6.354;2023-04-03T04:00:14;8.73;;;2.38;;
38113;SDS011;23926;53.222;6.354;2023-04-03T04:02:40;5.85;;;2.20;;
38113;SDS011;23926;53.222;6.354;2023-04-03T04:05:06;4.80;;;2.72;;
38113;SDS011;23926;53.222;6.354;2023-04-03T04:07:31;9.25;;;2.78;;
38113;SDS011;23926;53.222;6.354;2023-04-03T04:09:57;7.57;;;2.28;;
38113;SDS011;23926;53.222;6.354;2023-04-03T04:12:22;8.65;;;2.67;;
38113;SDS011;23926;53.222;6.354;2023-04-03T04:14:48;7.57;;;2.55;;
38113;SDS011;23926;53.222;6.354;2023-04-03T04:17:13;4.78;;;2.33;;
38113;SDS011;23926;53.222;6.354;2023-04-03T04:19:39;11.85;;;2.60;;
38113;SDS011;23926;53.222;6.354;2023-04-03T04:22:04;4.32;;;2.30;;
38113;SDS011;23926;53.222;6.354;2023-04-03T04:24:30;6.32;;;2.65;;
38113;SDS011;23926;53.222;6.354;2023-04-03T04:26:55;6.13;;;2.65;;
38113;SDS011;23926;53.222;6.354;2023-04-03T04:29:21;8.32;;;2.70;;
38113;SDS011;23926;53.222;6.354;2023-04-03T04:31:46;11.77;;;3.10;;
38113;SDS011;23926;53.222;6.354;2023-04-03T04:34:12;4.15;;;2.72;;
38113;SDS011;23926;53.222;6.354;2023-04-03T04:36:38;7.75;;;2.72;;
38113;SDS011;23926;53.222;6.354;2023-04-03T04:39:04;5.72;;;2.65;;
38113;SDS011;23926;53.222;6.354;2023-04-03T04:41:30;6.07;;;2.42;;
38113;SDS011;23926;53.222;6.354;2023-04-03T04:43:56;9.13;;;3.22;;
38113;SDS011;23926;53.222;6.354;2023-04-03T04:46:22;11.80;;;3.25;;
38113;SDS011;23926;53.222;6.354;2023-04-03T04:48:47;7.03;;;3.03;;
38113;SDS011;23926;53.222;6.354;2023-04-03T04:51:13;6.70;;;2.72;;
38113;SDS011;23926;53.222;6.354;2023-04-03T04:53:39;10.27;;;3.28;;
38113;SDS011;23926;53.222;6.354;2023-04-03T04:56:05;9.88;;;3.08;;
38113;SDS011;23926;53.222;6.354;2023-04-03T04:58:31;7.03;;;2.63;;
38113;SDS011;23926;53.222;6.354;2023-04-03T05:01:05;6.45;;;3.08;;
38113;SDS011;23926;53.222;6.354;2023-04-03T05:03:32;10.02;;;3.50;;
38113;SDS011;23926;53.222;6.354;2023-04-03T05:05:58;10.88;;;3.20;;
38113;SDS011;23926;53.222;6.354;2023-04-03T05:08:24;9.75;;;3.10;;
38113;SDS011;23926;53.222;6.354;2023-04-03T05:10:49;12.55;;;3.80;;
38113;SDS011;23926;53.222;6.354;2023-04-03T05:13:15;8.68;;;2.92;;
38113;SDS011;23926;53.222;6.354;2023-04-03T05:15:41;12.63;;;3.63;;
38113;SDS011;23926;53.222;6.354;2023-04-03T05:18:06;10.50;;;3.60;;
38113;SDS011;23926;53.222;6.354;2023-04-03T05:20:32;7.85;;;2.97;;
38113;SDS011;23926;53.222;6.354;2023-04-03T05:22:58;10.05;;;3.22;;
38113;SDS011;23926;53.222;6.354;2023-04-03T05:25:24;11.10;;;3.30;;
38113;SDS011;23926;53.222;6.354;2023-04-03T05:27:49;7.85;;;3.28;;
38113;SDS011;23926;53.222;6.354;2023-04-03T05:30:15;7.93;;;3.45;;
38113;SDS011;23926;53.222;6.354;2023-04-03T05:32:41;7.47;;;2.72;;
38113;SDS011;23926;53.222;6.354;2023-04-03T05:35:07;9.20;;;3.30;;
38113;SDS011;23926;53.222;6.354;2023-04-03T05:37:33;7.57;;;2.83;;
38113;SDS011;23926;53.222;6.354;2023-04-03T05:39:59;9.32;;;3.05;;
38113;SDS011;23926;53.222;6.354;2023-04-03T05:42:25;15.73;;;4.60;;
38113;SDS011;23926;53.222;6.354;2023-04-03T05:44:51;8.70;;;3.65;;
38113;SDS011;23926;53.222;6.354;2023-04-03T05:47:17;8.13;;;3.25;;
38113;SDS011;23926;53.222;6.354;2023-04-03T05:49:43;10.48;;;3.90;;
38113;SDS011;23926;53.222;6.354;2023-04-03T05:52:23;13.63;;;3.72;;
38113;SDS011;23926;53.222;6.354;2023-04-03T05:54:52;11.82;;;3.80;;
38113;SDS011;23926;53.222;6.354;2023-04-03T05:57:17;9.35;;;3.83;;
38113;SDS011;23926;53.222;6.354;2023-04-03T05:59:43;13.23;;;3.88;;
38113;SDS011;23926;53.222;6.354;2023-04-03T06:02:11;8.85;;;3.50;;
38113;SDS011;23926;53.222;6.354;2023-04-03T06:04:39;6.88;;;3.20;;
38113;SDS011;23926;53.222;6.354;2023-04-03T06:07:06;12.55;;;3.75;;
38113;SDS011;23926;53.222;6.354;2023-04-03T06:09:34;9.82;;;3.63;;
38113;SDS011;23926;53.222;6.354;2023-04-03T06:12:00;7.78;;;3.58;;
38113;SDS011;23926;53.222;6.354;2023-04-03T06:14:26;8.00;;;3.30;;
38113;SDS011;23926;53.222;6.354;2023-04-03T06:16:52;10.75;;;3.85;;
38113;SDS011;23926;53.222;6.354;2023-04-03T06:19:19;8.10;;;3.35;;
38113;SDS011;23926;53.222;6.354;2023-04-03T06:21:45;11.77;;;4.10;;
38113;SDS011;23926;53.222;6.354;2023-04-03T06:24:12;4.93;;;2.70;;
38113;SDS011;23926;53.222;6.354;2023-04-03T06:26:40;8.88;;;3.85;;
38113;SDS011;23926;53.222;6.354;2023-04-03T06:29:06;4.82;;;2.95;;
38113;SDS011;23926;53.222;6.354;2023-04-03T06:31:32;9.27;;;3.10;;
38113;SDS011;23926;53.222;6.354;2023-04-03T06:33:57;11.32;;;3.92;;
38113;SDS011;23926;53.222;6.354;2023-04-03T06:36:23;11.07;;;3.38;;
38113;SDS011;23926;53.222;6.354;2023-04-03T06:38:48;14.85;;;3.88;;
38113;SDS011;23926;53.222;6.354;2023-04-03T06:41:14;9.00;;;3.30;;
38113;SDS011;23926;53.222;6.354;2023-04-03T06:43:41;8.75;;;3.63;;
38113;SDS011;23926;53.222;6.354;2023-04-03T06:46:10;8.93;;;3.28;;
38113;SDS011;23926;53.222;6.354;2023-04-03T06:48:44;7.22;;;2.95;;
38113;SDS011;23926;53.222;6.354;2023-04-03T06:51:24;9.02;;;3.85;;
38113;SDS011;23926;53.222;6.354;2023-04-03T06:53:51;12.98;;;3.88;;
38113;SDS011;23926;53.222;6.354;2023-04-03T06:56:18;12.30;;;3.70;;
38113;SDS011;23926;53.222;6.354;2023-04-03T06:58:44;18.60;;;4.03;;
38113;SDS011;23926;53.222;6.354;2023-04-03T07:01:10;8.70;;;2.80;;
38113;SDS011;23926;53.222;6.354;2023-04-03T07:03:37;5.20;;;3.15;;
38113;SDS011;23926;53.222;6.354;2023-04-03T07:06:04;8.57;;;3.72;;
38113;SDS011;23926;53.222;6.354;2023-04-03T07:08:30;8.07;;;3.55;;
38113;SDS011;23926;53.222;6.354;2023-04-03T07:10:56;13.68;;;4.55;;
38113;SDS011;23926;53.222;6.354;2023-04-03T07:13:22;6.97;;;3.20;;
38113;SDS011;23926;53.222;6.354;2023-04-03T07:15:47;8.82;;;3.35;;
38113;SDS011;23926;53.222;6.354;2023-04-03T07:18:13;7.43;;;3.40;;
38113;SDS011;23926;53.222;6.354;2023-04-03T07:20:39;7.15;;;3.78;;
38113;SDS011;23926;53.222;6.354;2023-04-03T07:23:05;5.88;;;3.00;;
38113;SDS011;23926;53.222;6.354;2023-04-03T07:25:30;8.30;;;2.97;;
38113;SDS011;23926;53.222;6.354;2023-04-03T07:27:56;7.15;;;2.72;;
38113;SDS011;23926;53.222;6.354;2023-04-03T07:30:22;9.20;;;2.97;;
38113;SDS011;23926;53.222;6.354;2023-04-03T07:32:48;9.90;;;3.50;;
38113;SDS011;23926;53.222;6.354;2023-04-03T07:35:13;8.00;;;3.15;;
38113;SDS011;23926;53.222;6.354;2023-04-03T07:37:39;9.70;;;2.95;;
38113;SDS011;23926;53.222;6.354;2023-04-03T07:40:05;6.88;;;2.60;;
38113;SDS011;23926;53.222;6.354;2023-04-03T07:42:31;5.30;;;3.28;;
38113;SDS011;23926;53.222;6.354;2023-04-03T07:44:57;7.43;;;2.60;;
38113;SDS011;23926;53.222;6.354;2023-04-03T07:47:22;7.43;;;2.40;;
38113;SDS011;23926;53.222;6.354;2023-04-03T07:49:48;7.80;;;2.67;;
38113;SDS011;23926;53.222;6.354;2023-04-03T07:52:13;6.55;;;2.42;;
38113;SDS011;23926;53.222;6.354;2023-04-03T07:54:40;6.72;;;2.72;;
38113;SDS011;23926;53.222;6.354;2023-04-03T07:57:06;7.18;;;2.13;;
38113;SDS011;23926;53.222;6.354;2023-04-03T07:59:31;7.72;;;2.47;;
38113;SDS011;23926;53.222;6.354;2023-04-03T08:01:57;5.13;;;2.30;;
38113;SDS011;23926;53.222;6.354;2023-04-03T08:04:22;6.15;;;2.30;;
38113;SDS011;23926;53.222;6.354;2023-04-03T08:06:48;9.23;;;2.92;;
38113;SDS011;23926;53.222;6.354;2023-04-03T08:09:14;8.10;;;3.20;;
38113;SDS011;23926;53.222;6.354;2023-04-03T08:11:40;7.68;;;2.63;;
38113;SDS011;23926;53.222;6.354;2023-04-03T08:14:06;6.05;;;2.33;;
38113;SDS011;23926;53.222;6.354;2023-04-03T08:16:32;4.72;;;2.10;;
38113;SDS011;23926;53.222;6.354;2023-04-03T08:18:58;4.30;;;2.03;;
38113;SDS011;23926;53.222;6.354;2023-04-03T08:21:24;8.05;;;2.65;;
38113;SDS011;23926;53.222;6.354;2023-04-03T08:23:50;9.13;;;2.65;;
38113;SDS011;23926;53.222;6.354;2023-04-03T08:26:17;8.40;;;2.72;;
38113;SDS011;23926;53.222;6.354;2023-04-03T08:28:45;5.50;;;2.42;;
38113;SDS011;23926;53.222;6.354;2023-04-03T08:31:12;5.68;;;2.08;;
38113;SDS011;23926;53.222;6.354;2023-04-03T08:33:39;4.10;;;2.15;;
38113;SDS011;23926;53.222;6.354;2023-04-03T08:36:06;6.55;;;2.60;;
38113;SDS011;23926;53.222;6.354;2023-04-03T08:38:33;4.88;;;2.53;;
38113;SDS011;23926;53.222;6.354;2023-04-03T08:41:09;5.93;;;2.30;;
38113;SDS011;23926;53.222;6.354;2023-04-03T08:43:58;6.22;;;2.58;;
38113;SDS011;23926;53.222;6.354;2023-04-03T08:49:11;5.65;;;2.42;;
38113;SDS011;23926;53.222;6.354;2023-04-03T08:51:54;7.63;;;2.90;;
38113;SDS011;23926;53.222;6.354;2023-04-03T08:54:37;7.50;;;2.22;;
38113;SDS011;23926;53.222;6.354;2023-04-03T08:57:30;7.32;;;2.60;;
38113;SDS011;23926;53.222;6.354;2023-04-03T08:59:59;4.32;;;1.98;;
38113;SDS011;23926;53.222;6.354;2023-04-03T09:02:33;3.25;;;1.92;;
38113;SDS011;23926;53.222;6.354;2023-04-03T09:05:18;4.90;;;1.70;;
38113;SDS011;23926;53.222;6.354;2023-04-03T09:07:55;5.57;;;1.92;;
38113;SDS011;23926;53.222;6.354;2023-04-03T09:10:29;3.72;;;1.77;;
38113;SDS011;23926;53.222;6.354;2023-04-03T09:15:28;5.32;;;1.50;;
38113;SDS011;23926;53.222;6.354;2023-04-03T09:20:44;2.72;;;1.58;;
38113;SDS011;23926;53.222;6.354;2023-04-03T09:26:08;7.07;;;1.85;;
38113;SDS011;23926;53.222;6.354;2023-04-03T09:28:39;3.85;;;1.70;;
38113;SDS011;23926;53.222;6.354;2023-04-03T09:31:20;6.80;;;1.73;;
38113;SDS011;23926;53.222;6.354;2023-04-03T09:33:56;4.72;;;1.45;;
38113;SDS011;23926;53.222;6.354;2023-04-03T09:36:45;3.88;;;1.58;;
38113;SDS011;23926;53.222;6.354;2023-04-03T09:39:16;3.75;;;1.75;;
38113;SDS011;23926;53.222;6.354;2023-04-03T09:41:57;2.90;;;1.73;;
38113;SDS011;23926;53.222;6.354;2023-04-03T09:44:59;4.47;;;1.70;;
38113;SDS011;23926;53.222;6.354;2023-04-03T09:52:38;2.92;;;1.60;;
38113;SDS011;23926;53.222;6.354;2023-04-03T09:55:08;4.78;;;1.55;;
38113;SDS011;23926;53.222;6.354;2023-04-03T09:57:40;6.70;;;1.73;;
38113;SDS011;23926;53.222;6.354;2023-04-03T10:00:10;3.63;;;1.45;;
38113;SDS011;23926;53.222;6.354;2023-04-03T10:02:46;4.40;;;1.60;;
38113;SDS011;23926;53.222;6.354;2023-04-03T10:07:50;5.60;;;1.63;;
38113;SDS011;23926;53.222;6.354;2023-04-03T10:10:20;2.90;;;1.48;;
38113;SDS011;23926;53.222;6.354;2023-04-03T10:12:49;2.28;;;1.15;;
38113;SDS011;23926;53.222;6.354;2023-04-03T10:15:39;2.85;;;1.50;;
38113;SDS011;23926;53.222;6.354;2023-04-03T10:18:27;6.60;;;2.55;;
38113;SDS011;23926;53.222;6.354;2023-04-03T10:21:13;3.15;;;1.60;;
38113;SDS011;23926;53.222;6.354;2023-04-03T10:23:47;3.60;;;1.70;;
38113;SDS011;23926;53.222;6.354;2023-04-03T10:34:45;2.90;;;1.48;;
38113;SDS011;23926;53.222;6.354;2023-04-03T10:37:24;2.83;;;1.48;;
38113;SDS011;23926;53.222;6.354;2023-04-03T10:46:16;2.63;;;1.35;;
38113;SDS011;23926;53.222;6.354;2023-04-03T10:52:00;4.22;;;1.70;;
38113;SDS011;23926;53.222;6.354;2023-04-03T10:54:37;3.60;;;1.40;;
38113;SDS011;23926;53.222;6.354;2023-04-03T10:57:06;3.92;;;1.27;;
38113;SDS011;23926;53.222;6.354;2023-04-03T10:59:51;3.88;;;1.83;;
38113;SDS011;23926;53.222;6.354;2023-04-03T11:02:28;6.43;;;2.00;;
38113;SDS011;23926;53.222;6.354;2023-04-03T11:05:08;5.13;;;1.60;;
38113;SDS011;23926;53.222;6.354;2023-04-03T11:07:43;3.50;;;1.40;;
38113;SDS011;23926;53.222;6.354;2023-04-03T11:10:17;4.47;;;1.50;;
38113;SDS011;23926;53.222;6.354;2023-04-03T11:12:59;3.92;;;1.45;;
38113;SDS011;23926;53.222;6.354;2023-04-03T11:15:31;2.35;;;1.15;;
38113;SDS011;23926;53.222;6.354;2023-04-03T11:17:59;2.72;;;1.30;;
38113;SDS011;23926;53.222;6.354;2023-04-03T11:20:34;4.07;;;1.58;;
38113;SDS011;23926;53.222;6.354;2023-04-03T11:25:31;1.98;;;1.40;;
38113;SDS011;23926;53.222;6.354;2023-04-03T11:28:06;1.95;;;1.40;;
38113;SDS011;23926;53.222;6.354;2023-04-03T11:41:48;2.50;;;1.30;;
38113;SDS011;23926;53.222;6.354;2023-04-03T11:44:27;4.90;;;1.58;;
38113;SDS011;23926;53.222;6.354;2023-04-03T11:46:57;1.58;;;1.30;;
38113;SDS011;23926;53.222;6.354;2023-04-03T11:55:35;2.50;;;1.30;;
38113;SDS011;23926;53.222;6.354;2023-04-03T12:08:30;2.30;;;1.17;;
38113;SDS011;23926;53.222;6.354;2023-04-03T12:22:04;3.25;;;1.42;;
38113;SDS011;23926;53.222;6.354;2023-04-03T12:32:19;2.67;;;1.60;;
38113;SDS011;23926;53.222;6.354;2023-04-03T12:34:55;2.72;;;1.30;;
38113;SDS011;23926;53.222;6.354;2023-04-03T12:45:52;2.40;;;1.42;;
38113;SDS011;23926;53.222;6.354;2023-04-03T12:48:26;4.53;;;1.60;;
38113;SDS011;23926;53.222;6.354;2023-04-03T12:50:53;2.63;;;1.17;;
38113;SDS011;23926;53.222;6.354;2023-04-03T12:53:33;2.28;;;1.30;;
38113;SDS011;23926;53.222;6.354;2023-04-03T12:56:33;2.67;;;1.20;;
38113;SDS011;23926;53.222;6.354;2023-04-03T12:59:12;4.00;;;1.30;;
38113;SDS011;23926;53.222;6.354;2023-04-03T13:01:44;2.58;;;1.30;;
38113;SDS011;23926;53.222;6.354;2023-04-03T13:04:17;3.30;;;1.92;;
38113;SDS011;23926;53.222;6.354;2023-04-03T13:06:43;5.30;;;1.83;;
38113;SDS011;23926;53.222;6.354;2023-04-03T13:09:22;4.40;;;1.30;;
38113;SDS011;23926;53.222;6.354;2023-04-03T13:12:00;3.30;;;0.93;;
38113;SDS011;23926;53.222;6.354;2023-04-03T13:14:28;1.90;;;1.40;;
38113;SDS011;23926;53.222;6.354;2023-04-03T13:19:31;2.03;;;1.10;;
38113;SDS011;23926;53.222;6.354;2023-04-03T13:21:59;2.13;;;1.17;;
38113;SDS011;23926;53.222;6.354;2023-04-03T13:24:30;1.92;;;1.13;;
38113;SDS011;23926;53.222;6.354;2023-04-03T13:26:59;1.70;;;1.00;;
38113;SDS011;23926;53.222;6.354;2023-04-03T13:29:27;4.18;;;1.40;;
38113;SDS011;23926;53.222;6.354;2023-04-03T13:31:55;1.65;;;1.35;;
38113;SDS011;23926;53.222;6.354;2023-04-03T13:34:22;4.28;;;1.30;;
38113;SDS011;23926;53.222;6.354;2023-04-03T13:41:44;1.27;;;1.02;;
38113;SDS011;23926;53.222;6.354;2023-04-03T13:46:47;1.88;;;1.27;;
38113;SDS011;23926;53.222;6.354;2023-04-03T13:51:58;2.30;;;1.50;;
38113;SDS011;23926;53.222;6.354;2023-04-03T13:54:38;2.33;;;1.30;;
38113;SDS011;23926;53.222;6.354;2023-04-03T13:57:11;5.45;;;1.60;;
38113;SDS011;23926;53.222;6.354;2023-04-03T13:59:39;2.05;;;1.17;;
38113;SDS011;23926;53.222;6.354;2023-04-03T14:02:29;5.75;;;1.52;;
38113;SDS011;23926;53.222;6.354;2023-04-03T14:04:59;3.60;;;1.70;;
38113;SDS011;23926;53.222;6.354;2023-04-03T14:07:27;2.95;;;1.65;;
38113;SDS011;23926;53.222;6.354;2023-04-03T14:09:54;2.58;;;1.40;;
38113;SDS011;23926;53.222;6.354;2023-04-03T14:12:34;4.88;;;1.67;;
38113;SDS011;23926;53.222;6.354;2023-04-03T14:15:03;4.30;;;1.85;;
38113;SDS011;23926;53.222;6.354;2023-04-03T14:17:50;3.65;;;2.10;;
38113;SDS011;23926;53.222;6.354;2023-04-03T14:20:17;4.75;;;1.80;;
38113;SDS011;23926;53.222;6.354;2023-04-03T14:22:45;4.22;;;1.98;;
38113;SDS011;23926;53.222;6.354;2023-04-03T14:25:12;8.25;;;2.03;;
38113;SDS011;23926;53.222;6.354;2023-04-03T14:27:41;3.88;;;1.90;;
38113;SDS011;23926;53.222;6.354;2023-04-03T14:30:11;2.70;;;1.70;;
38113;SDS011;23926;53.222;6.354;2023-04-03T14:32:40;6.82;;;1.67;;
38113;SDS011;23926;53.222;6.354;2023-04-03T14:35:06;8.90;;;2.03;;
38113;SDS011;23926;53.222;6.354;2023-04-03T14:37:32;5.10;;;1.98;;
38113;SDS011;23926;53.222;6.354;2023-04-03T14:39:59;2.72;;;2.00;;
38113;SDS011;23926;53.222;6.354;2023-04-03T14:42:27;4.93;;;1.90;;
38113;SDS011;23926;53.222;6.354;2023-04-03T14:44:57;3.78;;;1.55;;
38113;SDS011;23926;53.222;6.354;2023-04-03T14:47:24;6.60;;;1.80;;
38113;SDS011;23926;53.222;6.354;2023-04-03T14:49:52;3.65;;;1.65;;
38113;SDS011;23926;53.222;6.354;2023-04-03T14:52:19;2.70;;;1.67;;
38113;SDS011;23926;53.222;6.354;2023-04-03T14:54:47;5.78;;;1.70;;
38113;SDS011;23926;53.222;6.354;2023-04-03T14:57:14;4.03;;;2.25;;
38113;SDS011;23926;53.222;6.354;2023-04-03T14:59:41;5.18;;;1.75;;
38113;SDS011;23926;53.222;6.354;2023-04-03T15:02:15;5.35;;;1.77;;
38113;SDS011;23926;53.222;6.354;2023-04-03T15:04:47;4.30;;;1.27;;
38113;SDS011;23926;53.222;6.354;2023-04-03T15:07:12;4.32;;;1.63;;
38113;SDS011;23926;53.222;6.354;2023-04-03T15:09:38;4.97;;;1.83;;
38113;SDS011;23926;53.222;6.354;2023-04-03T15:12:03;3.42;;;1.50;;
38113;SDS011;23926;53.222;6.354;2023-04-03T15:14:29;5.47;;;1.50;;
38113;SDS011;23926;53.222;6.354;2023-04-03T15:16:54;5.72;;;1.48;;
38113;SDS011;23926;53.222;6.354;2023-04-03T15:19:20;4.18;;;2.00;;
38113;SDS011;23926;53.222;6.354;2023-04-03T15:21:45;3.28;;;1.52;;
38113;SDS011;23926;53.222;6.354;2023-04-03T15:24:11;4.35;;;1.95;;
38113;SDS011;23926;53.222;6.354;2023-04-03T15:26:36;3.17;;;1.63;;
38113;SDS011;23926;53.222;6.354;2023-04-03T15:29:03;3.00;;;1.23;;
38113;SDS011;23926;53.222;6.354;2023-04-03T15:31:28;3.05;;;1.27;;
38113;SDS011;23926;53.222;6.354;2023-04-03T15:33:54;4.65;;;1.08;;
38113;SDS011;23926;53.222;6.354;2023-04-03T15:36:20;2.20;;;1.20;;
38113;SDS011;23926;53.222;6.354;2023-04-03T15:38:45;3.30;;;1.08;;
38113;SDS011;23926;53.222;6.354;2023-04-03T15:41:10;3.15;;;1.33;;
38113;SDS011;23926;53.222;6.354;2023-04-03T15:43:36;2.08;;;1.23;;
38113;SDS011;23926;53.222;6.354;2023-04-03T15:46:02;1.98;;;1.58;;
38113;SDS011;23926;53.222;6.354;2023-04-03T15:48:28;3.35;;;1.27;;
38113;SDS011;23926;53.222;6.354;2023-04-03T15:50:54;2.85;;;1.17;;
38113;SDS011;23926;53.222;6.354;2023-04-03T15:53:20;3.40;;;1.23;;
38113;SDS011;23926;53.222;6.354;2023-04-03T15:55:45;1.45;;;1.05;;
38113;SDS011;23926;53.222;6.354;2023-04-03T15:58:11;2.30;;;1.13;;
38113;SDS011;23926;53.222;6.354;2023-04-03T16:00:36;3.50;;;1.10;;
38113;SDS011;23926;53.222;6.354;2023-04-03T16:03:10;3.75;;;1.40;;
38113;SDS011;23926;53.222;6.354;2023-04-03T16:05:37;3.67;;;1.50;;
38113;SDS011;23926;53.222;6.354;2023-04-03T16:08:03;3.05;;;1.23;;
38113;SDS011;23926;53.222;6.354;2023-04-03T16:10:31;4.10;;;1.38;;
38113;SDS011;23926;53.222;6.354;2023-04-03T16:12:56;2.83;;;1.17;;
38113;SDS011;23926;53.222;6.354;2023-04-03T16:15:22;3.95;;;1.50;;
38113;SDS011;23926;53.222;6.354;2023-04-03T16:17:49;5.10;;;1.95;;
38113;SDS011;23926;53.222;6.354;2023-04-03T16:20:15;4.30;;;1.50;;
38113;SDS011;23926;53.222;6.354;2023-04-03T16:22:40;6.13;;;1.85;;
38113;SDS011;23926;53.222;6.354;2023-04-03T16:25:07;2.70;;;1.20;;
38113;SDS011;23926;53.222;6.354;2023-04-03T16:27:33;4.65;;;1.42;;
38113;SDS011;23926;53.222;6.354;2023-04-03T16:30:00;3.08;;;1.48;;
38113;SDS011;23926;53.222;6.354;2023-04-03T16:32:26;2.67;;;1.50;;
38113;SDS011;23926;53.222;6.354;2023-04-03T16:34:54;2.88;;;1.40;;
38113;SDS011;23926;53.222;6.354;2023-04-03T16:37:19;5.35;;;1.58;;
38113;SDS011;23926;53.222;6.354;2023-04-03T16:39:45;4.28;;;1.60;;
38113;SDS011;23926;53.222;6.354;2023-04-03T16:42:10;5.72;;;1.52;;
38113;SDS011;23926;53.222;6.354;2023-04-03T16:44:36;4.47;;;1.73;;
38113;SDS011;23926;53.222;6.354;2023-04-03T16:47:02;3.80;;;1.63;;